sensor_id;sensor_type;location;lat;lon;timestamp;P1;durP1;ratioP1;P2;durP2;ratioP2
54416;SDS011;40326;51.220;7.250;2022-08-05T00:00:01;6.35;;;2.40;;
54416;SDS011;40326;51.220;7.250;2022-08-05T00:02:27;5.30;;;2.47;;
54416;SDS011;40326;51.220;7.250;2022-08-05T00:04:52;7.97;;;2.80;;
54416;SDS011;40326;51.220;7.250;2022-08-05T00:07:18;5.43;;;2.47;;
54416;SDS011;40326;51.220;7.250;2022-08-05T00:09:43;6.45;;;2.83;;
54416;SDS011;40326;51.220;7.250;2022-08-05T00:12:08;3.83;;;2.28;;
54416;SDS011;40326;51.220;7.250;2022-08-05T00:14:34;4.63;;;2.53;;
54416;SDS011;40326;51.220;7.250;2022-08-05T00:16:59;5.57;;;2.90;;
54416;SDS011;40326;51.220;7.250;2022-08-05T00:19:25;5.53;;;2.72;;
54416;SDS011;40326;51.220;7.250;2022-08-05T00:21:50;5.88;;;2.67;;
54416;SDS011;40326;51.220;7.250;2022-08-05T00:24:16;5.72;;;3.08;;
54416;SDS011;40326;51.220;7.250;2022-08-05T00:26:41;8.13;;;3.10;;
54416;SDS011;40326;51.220;7.250;2022-08-05T00:29:06;5.90;;;2.90;;
54416;SDS011;40326;51.220;7.250;2022-08-05T00:31:32;4.85;;;2.70;;
54416;SDS011;40326;51.220;7.250;2022-08-05T00:33:57;6.50;;;2.80;;
54416;SDS011;40326;51.220;7.250;2022-08-05T00:36:23;7.22;;;2.88;;
54416;SDS011;40326;51.220;7.250;2022-08-05T00:38:48;5.38;;;3.00;;
54416;SDS011;40326;51.220;7.250;2022-08-05T00:41:25;5.13;;;2.50;;
54416;SDS011;40326;51.220;7.250;2022-08-05T00:43:51;5.93;;;3.30;;
54416;SDS011;40326;51.220;7.250;2022-08-05T00:46:16;5.97;;;3.50;;
54416;SDS011;40326;51.220;7.250;2022-08-05T00:48:41;7.35;;;2.80;;
54416;SDS011;40326;51.220;7.250;2022-08-05T00:51:07;8.23;;;3.40;;
54416;SDS011;40326;51.220;7.250;2022-08-05T00:53:32;5.93;;;3.05;;
54416;SDS011;40326;51.220;7.250;2022-08-05T00:55:57;5.25;;;2.97;;
54416;SDS011;40326;51.220;7.250;2022-08-05T00:58:23;6.50;;;3.10;;
54416;SDS011;40326;51.220;7.250;2022-08-05T01:00:48;4.97;;;2.58;;
54416;SDS011;40326;51.220;7.250;2022-08-05T01:03:13;5.47;;;3.20;;
54416;SDS011;40326;51.220;7.250;2022-08-05T01:05:39;4.43;;;2.72;;
54416;SDS011;40326;51.220;7.250;2022-08-05T01:08:04;5.00;;;2.88;;
54416;SDS011;40326;51.220;7.250;2022-08-05T01:10:34;7.00;;;3.33;;
54416;SDS011;40326;51.220;7.250;2022-08-05T01:13:14;11.07;;;3.15;;
54416;SDS011;40326;51.220;7.250;2022-08-05T01:15:46;6.72;;;3.20;;
54416;SDS011;40326;51.220;7.250;2022-08-05T01:18:19;7.35;;;3.20;;
54416;SDS011;40326;51.220;7.250;2022-08-05T01:26:28;6.88;;;3.25;;
54416;SDS011;40326;51.220;7.250;2022-08-05T01:28:57;6.70;;;3.05;;
54416;SDS011;40326;51.220;7.250;2022-08-05T01:34:12;6.65;;;3.35;;
54416;SDS011;40326;51.220;7.250;2022-08-05T01:36:45;4.63;;;2.63;;
54416;SDS011;40326;51.220;7.250;2022-08-05T01:39:14;7.22;;;3.30;;
54416;SDS011;40326;51.220;7.250;2022-08-05T01:41:41;7.28;;;3.28;;
54416;SDS011;40326;51.220;7.250;2022-08-05T01:44:09;4.72;;;2.83;;
54416;SDS011;40326;51.220;7.250;2022-08-05T01:46:37;7.13;;;3.63;;
54416;SDS011;40326;51.220;7.250;2022-08-05T01:49:03;6.22;;;3.78;;
54416;SDS011;40326;51.220;7.250;2022-08-05T01:51:30;5.70;;;3.55;;
54416;SDS011;40326;51.220;7.250;2022-08-05T01:53:59;5.75;;;3.42;;
54416;SDS011;40326;51.220;7.250;2022-08-05T01:56:29;6.85;;;3.35;;
54416;SDS011;40326;51.220;7.250;2022-08-05T01:58:56;8.27;;;3.00;;
54416;SDS011;40326;51.220;7.250;2022-08-05T02:01:22;6.93;;;3.90;;
54416;SDS011;40326;51.220;7.250;2022-08-05T02:03:49;7.07;;;3.53;;
54416;SDS011;40326;51.220;7.250;2022-08-05T02:06:16;7.10;;;3.60;;
54416;SDS011;40326;51.220;7.250;2022-08-05T02:08:41;9.48;;;3.90;;
54416;SDS011;40326;51.220;7.250;2022-08-05T02:11:09;9.13;;;3.47;;
54416;SDS011;40326;51.220;7.250;2022-08-05T02:13:37;5.57;;;3.33;;
54416;SDS011;40326;51.220;7.250;2022-08-05T02:18:58;6.85;;;3.67;;
54416;SDS011;40326;51.220;7.250;2022-08-05T02:21:30;8.80;;;4.03;;
54416;SDS011;40326;51.220;7.250;2022-08-05T02:24:03;7.28;;;4.30;;
54416;SDS011;40326;51.220;7.250;2022-08-05T02:26:34;7.32;;;3.85;;
54416;SDS011;40326;51.220;7.250;2022-08-05T02:29:05;7.68;;;4.07;;
54416;SDS011;40326;51.220;7.250;2022-08-05T02:31:32;7.15;;;3.90;;
54416;SDS011;40326;51.220;7.250;2022-08-05T02:34:06;5.93;;;3.50;;
54416;SDS011;40326;51.220;7.250;2022-08-05T02:39:00;11.43;;;4.15;;
54416;SDS011;40326;51.220;7.250;2022-08-05T02:41:28;6.68;;;3.85;;
54416;SDS011;40326;51.220;7.250;2022-08-05T02:43:57;6.07;;;3.72;;
54416;SDS011;40326;51.220;7.250;2022-08-05T02:46:24;7.72;;;4.10;;
54416;SDS011;40326;51.220;7.250;2022-08-05T02:48:52;8.20;;;4.35;;
54416;SDS011;40326;51.220;7.250;2022-08-05T02:51:19;9.10;;;3.97;;
54416;SDS011;40326;51.220;7.250;2022-08-05T02:53:45;8.45;;;4.20;;
54416;SDS011;40326;51.220;7.250;2022-08-05T02:56:12;6.43;;;3.88;;
54416;SDS011;40326;51.220;7.250;2022-08-05T02:58:40;7.18;;;3.90;;
54416;SDS011;40326;51.220;7.250;2022-08-05T03:01:16;6.45;;;3.65;;
54416;SDS011;40326;51.220;7.250;2022-08-05T03:03:43;6.25;;;4.03;;
54416;SDS011;40326;51.220;7.250;2022-08-05T03:06:13;6.20;;;4.20;;
54416;SDS011;40326;51.220;7.250;2022-08-05T03:08:39;7.90;;;3.85;;
54416;SDS011;40326;51.220;7.250;2022-08-05T03:11:26;7.65;;;4.00;;
54416;SDS011;40326;51.220;7.250;2022-08-05T03:13:51;6.15;;;4.28;;
54416;SDS011;40326;51.220;7.250;2022-08-05T03:16:18;9.23;;;4.93;;
54416;SDS011;40326;51.220;7.250;2022-08-05T03:18:44;9.70;;;4.95;;
54416;SDS011;40326;51.220;7.250;2022-08-05T03:21:09;11.30;;;5.60;;
54416;SDS011;40326;51.220;7.250;2022-08-05T03:23:36;9.85;;;5.00;;
54416;SDS011;40326;51.220;7.250;2022-08-05T03:26:03;9.55;;;5.50;;
54416;SDS011;40326;51.220;7.250;2022-08-05T03:28:29;8.63;;;5.32;;
54416;SDS011;40326;51.220;7.250;2022-08-05T03:30:56;10.05;;;6.57;;
54416;SDS011;40326;51.220;7.250;2022-08-05T03:33:23;9.85;;;6.03;;
54416;SDS011;40326;51.220;7.250;2022-08-05T03:35:49;10.50;;;6.25;;
54416;SDS011;40326;51.220;7.250;2022-08-05T03:38:15;12.13;;;6.88;;
54416;SDS011;40326;51.220;7.250;2022-08-05T03:40:41;11.88;;;6.90;;
54416;SDS011;40326;51.220;7.250;2022-08-05T03:43:07;13.90;;;7.05;;
54416;SDS011;40326;51.220;7.250;2022-08-05T03:45:33;14.35;;;7.22;;
54416;SDS011;40326;51.220;7.250;2022-08-05T03:47:58;10.10;;;6.80;;
54416;SDS011;40326;51.220;7.250;2022-08-05T03:50:28;9.52;;;6.63;;
54416;SDS011;40326;51.220;7.250;2022-08-05T03:53:13;11.50;;;7.00;;
54416;SDS011;40326;51.220;7.250;2022-08-05T03:55:49;11.90;;;7.10;;
54416;SDS011;40326;51.220;7.250;2022-08-05T03:58:21;10.55;;;7.38;;
54416;SDS011;40326;51.220;7.250;2022-08-05T04:00:52;9.63;;;6.70;;
54416;SDS011;40326;51.220;7.250;2022-08-05T04:03:21;11.75;;;7.07;;
54416;SDS011;40326;51.220;7.250;2022-08-05T04:05:49;10.40;;;7.20;;
54416;SDS011;40326;51.220;7.250;2022-08-05T04:08:15;10.23;;;7.32;;
54416;SDS011;40326;51.220;7.250;2022-08-05T04:10:41;11.18;;;7.38;;
54416;SDS011;40326;51.220;7.250;2022-08-05T04:13:08;11.05;;;6.68;;
54416;SDS011;40326;51.220;7.250;2022-08-05T04:15:34;9.05;;;6.55;;
54416;SDS011;40326;51.220;7.250;2022-08-05T04:18:00;11.55;;;7.13;;
54416;SDS011;40326;51.220;7.250;2022-08-05T04:20:27;11.85;;;7.10;;
54416;SDS011;40326;51.220;7.250;2022-08-05T04:22:53;15.25;;;7.28;;
54416;SDS011;40326;51.220;7.250;2022-08-05T04:25:19;11.63;;;6.60;;
54416;SDS011;40326;51.220;7.250;2022-08-05T04:27:45;13.05;;;6.97;;
54416;SDS011;40326;51.220;7.250;2022-08-05T04:30:10;11.68;;;7.32;;
54416;SDS011;40326;51.220;7.250;2022-08-05T04:32:36;10.82;;;7.30;;
54416;SDS011;40326;51.220;7.250;2022-08-05T04:35:01;10.57;;;7.47;;
54416;SDS011;40326;51.220;7.250;2022-08-05T04:37:27;12.63;;;7.95;;
54416;SDS011;40326;51.220;7.250;2022-08-05T04:39:52;8.90;;;7.25;;
54416;SDS011;40326;51.220;7.250;2022-08-05T04:42:18;12.00;;;7.03;;
54416;SDS011;40326;51.220;7.250;2022-08-05T04:44:43;14.60;;;8.05;;
54416;SDS011;40326;51.220;7.250;2022-08-05T04:47:08;11.68;;;7.38;;
54416;SDS011;40326;51.220;7.250;2022-08-05T04:49:34;11.57;;;7.45;;
54416;SDS011;40326;51.220;7.250;2022-08-05T04:51:59;12.18;;;7.18;;
54416;SDS011;40326;51.220;7.250;2022-08-05T04:54:24;11.05;;;7.43;;
54416;SDS011;40326;51.220;7.250;2022-08-05T04:56:53;10.50;;;7.43;;
54416;SDS011;40326;51.220;7.250;2022-08-05T04:59:18;12.07;;;7.93;;
54416;SDS011;40326;51.220;7.250;2022-08-05T05:01:44;10.00;;;7.00;;
54416;SDS011;40326;51.220;7.250;2022-08-05T05:04:10;12.45;;;7.20;;
54416;SDS011;40326;51.220;7.250;2022-08-05T05:06:35;11.18;;;7.55;;
54416;SDS011;40326;51.220;7.250;2022-08-05T05:09:01;12.90;;;7.25;;
54416;SDS011;40326;51.220;7.250;2022-08-05T05:11:27;13.40;;;7.88;;
54416;SDS011;40326;51.220;7.250;2022-08-05T05:13:52;10.27;;;7.80;;
54416;SDS011;40326;51.220;7.250;2022-08-05T05:16:17;10.77;;;7.80;;
54416;SDS011;40326;51.220;7.250;2022-08-05T05:18:43;11.43;;;7.90;;
54416;SDS011;40326;51.220;7.250;2022-08-05T05:21:08;11.55;;;8.32;;
54416;SDS011;40326;51.220;7.250;2022-08-05T05:23:33;12.63;;;8.68;;
54416;SDS011;40326;51.220;7.250;2022-08-05T05:25:59;13.02;;;7.57;;
54416;SDS011;40326;51.220;7.250;2022-08-05T05:28:24;9.52;;;7.85;;
54416;SDS011;40326;51.220;7.250;2022-08-05T05:30:49;11.40;;;7.70;;
54416;SDS011;40326;51.220;7.250;2022-08-05T05:33:15;13.68;;;8.45;;
54416;SDS011;40326;51.220;7.250;2022-08-05T05:35:40;9.80;;;7.82;;
54416;SDS011;40326;51.220;7.250;2022-08-05T05:38:06;12.02;;;7.90;;
54416;SDS011;40326;51.220;7.250;2022-08-05T05:40:32;10.20;;;7.07;;
54416;SDS011;40326;51.220;7.250;2022-08-05T05:42:57;12.48;;;7.90;;
54416;SDS011;40326;51.220;7.250;2022-08-05T05:45:23;9.77;;;7.03;;
54416;SDS011;40326;51.220;7.250;2022-08-05T05:47:48;13.10;;;7.32;;
54416;SDS011;40326;51.220;7.250;2022-08-05T05:50:14;9.23;;;7.45;;
54416;SDS011;40326;51.220;7.250;2022-08-05T05:52:41;11.45;;;7.07;;
54416;SDS011;40326;51.220;7.250;2022-08-05T05:55:12;10.73;;;8.35;;
54416;SDS011;40326;51.220;7.250;2022-08-05T05:57:39;10.82;;;7.55;;
54416;SDS011;40326;51.220;7.250;2022-08-05T06:00:06;12.70;;;9.68;;
54416;SDS011;40326;51.220;7.250;2022-08-05T06:02:33;14.05;;;11.27;;
54416;SDS011;40326;51.220;7.250;2022-08-05T06:04:58;17.50;;;11.93;;
54416;SDS011;40326;51.220;7.250;2022-08-05T06:07:26;16.75;;;13.65;;
54416;SDS011;40326;51.220;7.250;2022-08-05T06:09:52;16.85;;;13.95;;
54416;SDS011;40326;51.220;7.250;2022-08-05T06:12:17;17.90;;;15.68;;
54416;SDS011;40326;51.220;7.250;2022-08-05T06:14:42;20.83;;;16.75;;
54416;SDS011;40326;51.220;7.250;2022-08-05T06:17:08;19.15;;;17.17;;
54416;SDS011;40326;51.220;7.250;2022-08-05T06:19:35;18.52;;;16.52;;
54416;SDS011;40326;51.220;7.250;2022-08-05T06:22:03;19.58;;;16.80;;
54416;SDS011;40326;51.220;7.250;2022-08-05T06:24:29;19.85;;;17.38;;
54416;SDS011;40326;51.220;7.250;2022-08-05T06:26:55;22.60;;;19.35;;
54416;SDS011;40326;51.220;7.250;2022-08-05T06:29:21;22.65;;;19.65;;
54416;SDS011;40326;51.220;7.250;2022-08-05T06:31:47;20.50;;;18.35;;
54416;SDS011;40326;51.220;7.250;2022-08-05T06:34:12;19.77;;;17.83;;
54416;SDS011;40326;51.220;7.250;2022-08-05T06:36:37;18.90;;;16.90;;
54416;SDS011;40326;51.220;7.250;2022-08-05T06:39:03;18.08;;;16.15;;
54416;SDS011;40326;51.220;7.250;2022-08-05T06:41:28;17.48;;;15.68;;
54416;SDS011;40326;51.220;7.250;2022-08-05T06:43:53;20.92;;;16.30;;
54416;SDS011;40326;51.220;7.250;2022-08-05T06:46:19;18.45;;;16.15;;
54416;SDS011;40326;51.220;7.250;2022-08-05T06:48:44;18.15;;;15.70;;
54416;SDS011;40326;51.220;7.250;2022-08-05T06:51:09;18.55;;;16.55;;
54416;SDS011;40326;51.220;7.250;2022-08-05T06:53:35;17.90;;;15.15;;
54416;SDS011;40326;51.220;7.250;2022-08-05T06:56:00;16.73;;;15.02;;
54416;SDS011;40326;51.220;7.250;2022-08-05T06:58:27;17.02;;;15.32;;
54416;SDS011;40326;51.220;7.250;2022-08-05T07:00:53;19.58;;;17.50;;
54416;SDS011;40326;51.220;7.250;2022-08-05T07:03:19;20.23;;;17.27;;
54416;SDS011;40326;51.220;7.250;2022-08-05T07:05:44;18.65;;;16.23;;
54416;SDS011;40326;51.220;7.250;2022-08-05T07:08:10;20.50;;;16.75;;
54416;SDS011;40326;51.220;7.250;2022-08-05T07:10:35;18.60;;;16.63;;
54416;SDS011;40326;51.220;7.250;2022-08-05T07:13:00;18.27;;;16.40;;
54416;SDS011;40326;51.220;7.250;2022-08-05T07:15:46;19.58;;;17.35;;
54416;SDS011;40326;51.220;7.250;2022-08-05T07:18:30;22.25;;;18.02;;
54416;SDS011;40326;51.220;7.250;2022-08-05T07:20:56;23.02;;;18.38;;
54416;SDS011;40326;51.220;7.250;2022-08-05T07:23:21;20.17;;;16.98;;
54416;SDS011;40326;51.220;7.250;2022-08-05T07:25:46;19.90;;;17.45;;
54416;SDS011;40326;51.220;7.250;2022-08-05T07:28:12;19.85;;;17.48;;
54416;SDS011;40326;51.220;7.250;2022-08-05T07:30:37;22.13;;;19.80;;
54416;SDS011;40326;51.220;7.250;2022-08-05T07:33:04;23.48;;;19.77;;
54416;SDS011;40326;51.220;7.250;2022-08-05T07:35:31;22.63;;;20.05;;
54416;SDS011;40326;51.220;7.250;2022-08-05T07:37:57;23.67;;;19.85;;
54416;SDS011;40326;51.220;7.250;2022-08-05T07:40:22;24.83;;;20.48;;
54416;SDS011;40326;51.220;7.250;2022-08-05T07:42:48;24.13;;;18.67;;
54416;SDS011;40326;51.220;7.250;2022-08-05T07:45:13;22.33;;;19.08;;
54416;SDS011;40326;51.220;7.250;2022-08-05T07:47:40;24.17;;;18.60;;
54416;SDS011;40326;51.220;7.250;2022-08-05T07:50:06;23.10;;;18.92;;
54416;SDS011;40326;51.220;7.250;2022-08-05T07:52:34;23.58;;;19.77;;
54416;SDS011;40326;51.220;7.250;2022-08-05T07:55:02;30.30;;;22.02;;
54416;SDS011;40326;51.220;7.250;2022-08-05T07:57:27;28.65;;;20.50;;
54416;SDS011;40326;51.220;7.250;2022-08-05T07:59:53;32.88;;;20.40;;
54416;SDS011;40326;51.220;7.250;2022-08-05T08:02:22;32.08;;;18.73;;
54416;SDS011;40326;51.220;7.250;2022-08-05T08:04:51;31.15;;;17.67;;
54416;SDS011;40326;51.220;7.250;2022-08-05T08:07:17;26.73;;;17.40;;
54416;SDS011;40326;51.220;7.250;2022-08-05T08:09:43;23.70;;;16.02;;
54416;SDS011;40326;51.220;7.250;2022-08-05T08:12:09;18.48;;;14.10;;
54416;SDS011;40326;51.220;7.250;2022-08-05T08:14:34;17.00;;;13.38;;
54416;SDS011;40326;51.220;7.250;2022-08-05T08:16:59;16.67;;;12.98;;
54416;SDS011;40326;51.220;7.250;2022-08-05T08:19:25;15.45;;;12.65;;
54416;SDS011;40326;51.220;7.250;2022-08-05T08:21:50;13.75;;;10.48;;
54416;SDS011;40326;51.220;7.250;2022-08-05T08:24:15;12.85;;;10.48;;
54416;SDS011;40326;51.220;7.250;2022-08-05T08:26:41;12.80;;;8.88;;
54416;SDS011;40326;51.220;7.250;2022-08-05T08:29:06;11.48;;;8.20;;
54416;SDS011;40326;51.220;7.250;2022-08-05T08:31:34;9.15;;;7.93;;
54416;SDS011;40326;51.220;7.250;2022-08-05T08:33:59;9.07;;;7.65;;
54416;SDS011;40326;51.220;7.250;2022-08-05T08:36:24;10.98;;;8.20;;
54416;SDS011;40326;51.220;7.250;2022-08-05T08:38:50;11.32;;;8.20;;
54416;SDS011;40326;51.220;7.250;2022-08-05T08:41:19;9.60;;;7.78;;
54416;SDS011;40326;51.220;7.250;2022-08-05T08:43:46;9.48;;;7.80;;
54416;SDS011;40326;51.220;7.250;2022-08-05T08:46:14;8.60;;;7.53;;
54416;SDS011;40326;51.220;7.250;2022-08-05T08:48:41;9.68;;;7.57;;
54416;SDS011;40326;51.220;7.250;2022-08-05T08:51:10;10.57;;;8.32;;
54416;SDS011;40326;51.220;7.250;2022-08-05T08:53:36;9.88;;;8.70;;
54416;SDS011;40326;51.220;7.250;2022-08-05T08:56:02;11.68;;;9.13;;
54416;SDS011;40326;51.220;7.250;2022-08-05T08:58:29;11.90;;;10.63;;
54416;SDS011;40326;51.220;7.250;2022-08-05T09:00:55;12.50;;;10.57;;
54416;SDS011;40326;51.220;7.250;2022-08-05T09:03:21;13.65;;;11.27;;
54416;SDS011;40326;51.220;7.250;2022-08-05T09:05:46;12.20;;;10.93;;
54416;SDS011;40326;51.220;7.250;2022-08-05T09:08:12;13.43;;;11.60;;
54416;SDS011;40326;51.220;7.250;2022-08-05T09:10:39;11.95;;;10.63;;
54416;SDS011;40326;51.220;7.250;2022-08-05T09:13:06;15.18;;;11.23;;
54416;SDS011;40326;51.220;7.250;2022-08-05T09:15:31;14.15;;;10.38;;
54416;SDS011;40326;51.220;7.250;2022-08-05T09:17:57;12.13;;;9.82;;
54416;SDS011;40326;51.220;7.250;2022-08-05T09:20:23;13.27;;;11.30;;
54416;SDS011;40326;51.220;7.250;2022-08-05T09:25:36;14.68;;;11.15;;
54416;SDS011;40326;51.220;7.250;2022-08-05T09:33:29;12.27;;;10.90;;
54416;SDS011;40326;51.220;7.250;2022-08-05T09:35:59;12.63;;;11.25;;
54416;SDS011;40326;51.220;7.250;2022-08-05T09:38:26;12.55;;;10.85;;
54416;SDS011;40326;51.220;7.250;2022-08-05T09:40:52;12.90;;;11.50;;
54416;SDS011;40326;51.220;7.250;2022-08-05T09:46:22;13.18;;;10.98;;
54416;SDS011;40326;51.220;7.250;2022-08-05T09:48:50;11.93;;;9.38;;
54416;SDS011;40326;51.220;7.250;2022-08-05T09:51:28;11.68;;;7.38;;
54416;SDS011;40326;51.220;7.250;2022-08-05T09:53:58;13.10;;;7.38;;
54416;SDS011;40326;51.220;7.250;2022-08-05T09:56:29;11.43;;;7.18;;
54416;SDS011;40326;51.220;7.250;2022-08-05T10:01:32;10.25;;;7.80;;
54416;SDS011;40326;51.220;7.250;2022-08-05T10:04:04;13.38;;;8.18;;
54416;SDS011;40326;51.220;7.250;2022-08-05T10:06:31;9.65;;;8.18;;
54416;SDS011;40326;51.220;7.250;2022-08-05T10:09:13;10.20;;;7.55;;
54416;SDS011;40326;51.220;7.250;2022-08-05T10:14:23;9.02;;;5.90;;
54416;SDS011;40326;51.220;7.250;2022-08-05T10:16:51;8.65;;;5.55;;
54416;SDS011;40326;51.220;7.250;2022-08-05T10:19:17;6.78;;;5.15;;
54416;SDS011;40326;51.220;7.250;2022-08-05T10:21:42;8.18;;;5.65;;
54416;SDS011;40326;51.220;7.250;2022-08-05T10:24:09;9.30;;;6.00;;
54416;SDS011;40326;51.220;7.250;2022-08-05T10:26:39;9.65;;;5.95;;
54416;SDS011;40326;51.220;7.250;2022-08-05T10:29:06;9.82;;;5.85;;
54416;SDS011;40326;51.220;7.250;2022-08-05T10:31:32;9.90;;;6.13;;
54416;SDS011;40326;51.220;7.250;2022-08-05T10:33:58;10.10;;;5.70;;
54416;SDS011;40326;51.220;7.250;2022-08-05T10:36:24;9.23;;;5.97;;
54416;SDS011;40326;51.220;7.250;2022-08-05T10:38:49;10.30;;;5.60;;
54416;SDS011;40326;51.220;7.250;2022-08-05T10:41:28;9.90;;;6.30;;
54416;SDS011;40326;51.220;7.250;2022-08-05T10:44:00;10.85;;;6.30;;
54416;SDS011;40326;51.220;7.250;2022-08-05T10:46:43;8.93;;;6.47;;
54416;SDS011;40326;51.220;7.250;2022-08-05T10:49:10;9.40;;;6.50;;
54416;SDS011;40326;51.220;7.250;2022-08-05T10:54:08;8.02;;;6.38;;
54416;SDS011;40326;51.220;7.250;2022-08-05T10:56:44;8.90;;;5.95;;
54416;SDS011;40326;51.220;7.250;2022-08-05T10:59:15;8.45;;;5.53;;
54416;SDS011;40326;51.220;7.250;2022-08-05T11:02:04;8.40;;;5.80;;
54416;SDS011;40326;51.220;7.250;2022-08-05T11:04:44;9.18;;;5.03;;
54416;SDS011;40326;51.220;7.250;2022-08-05T11:07:12;6.75;;;4.20;;
54416;SDS011;40326;51.220;7.250;2022-08-05T11:09:53;7.68;;;4.47;;
54416;SDS011;40326;51.220;7.250;2022-08-05T11:15:09;6.78;;;3.53;;
54416;SDS011;40326;51.220;7.250;2022-08-05T11:17:45;5.90;;;3.33;;
54416;SDS011;40326;51.220;7.250;2022-08-05T11:22:58;8.93;;;4.07;;
54416;SDS011;40326;51.220;7.250;2022-08-05T11:27:53;7.78;;;4.25;;
54416;SDS011;40326;51.220;7.250;2022-08-05T11:30:19;7.78;;;4.53;;
54416;SDS011;40326;51.220;7.250;2022-08-05T11:32:45;10.90;;;4.88;;
54416;SDS011;40326;51.220;7.250;2022-08-05T11:38:14;9.25;;;4.13;;
54416;SDS011;40326;51.220;7.250;2022-08-05T11:40:58;6.78;;;4.45;;
54416;SDS011;40326;51.220;7.250;2022-08-05T11:43:28;7.65;;;4.80;;
54416;SDS011;40326;51.220;7.250;2022-08-05T11:45:54;7.47;;;4.28;;
54416;SDS011;40326;51.220;7.250;2022-08-05T11:48:20;7.43;;;4.40;;
54416;SDS011;40326;51.220;7.250;2022-08-05T11:50:46;6.82;;;4.03;;
54416;SDS011;40326;51.220;7.250;2022-08-05T11:53:13;6.65;;;3.92;;
54416;SDS011;40326;51.220;7.250;2022-08-05T11:55:51;5.25;;;3.22;;
54416;SDS011;40326;51.220;7.250;2022-08-05T11:58:27;5.53;;;3.80;;
54416;SDS011;40326;51.220;7.250;2022-08-05T12:00:59;4.70;;;3.45;;
54416;SDS011;40326;51.220;7.250;2022-08-05T12:03:26;5.70;;;2.92;;
54416;SDS011;40326;51.220;7.250;2022-08-05T12:05:51;6.82;;;3.28;;
54416;SDS011;40326;51.220;7.250;2022-08-05T12:08:18;5.07;;;3.33;;
54416;SDS011;40326;51.220;7.250;2022-08-05T12:10:43;5.20;;;3.20;;
54416;SDS011;40326;51.220;7.250;2022-08-05T12:13:09;6.85;;;3.13;;
54416;SDS011;40326;51.220;7.250;2022-08-05T12:15:34;5.78;;;3.30;;
54416;SDS011;40326;51.220;7.250;2022-08-05T12:18:00;8.05;;;3.03;;
54416;SDS011;40326;51.220;7.250;2022-08-05T12:20:28;7.63;;;3.30;;
54416;SDS011;40326;51.220;7.250;2022-08-05T12:23:15;6.32;;;3.22;;
54416;SDS011;40326;51.220;7.250;2022-08-05T12:25:50;6.00;;;2.85;;
54416;SDS011;40326;51.220;7.250;2022-08-05T12:28:30;4.85;;;3.13;;
54416;SDS011;40326;51.220;7.250;2022-08-05T12:30:56;7.95;;;2.83;;
54416;SDS011;40326;51.220;7.250;2022-08-05T12:33:22;8.27;;;2.92;;
54416;SDS011;40326;51.220;7.250;2022-08-05T12:35:48;6.07;;;3.67;;
54416;SDS011;40326;51.220;7.250;2022-08-05T12:38:14;6.30;;;2.45;;
54416;SDS011;40326;51.220;7.250;2022-08-05T12:40:39;6.03;;;2.50;;
54416;SDS011;40326;51.220;7.250;2022-08-05T12:43:08;5.20;;;2.67;;
54416;SDS011;40326;51.220;7.250;2022-08-05T12:45:33;5.05;;;2.80;;
54416;SDS011;40326;51.220;7.250;2022-08-05T12:47:58;6.55;;;2.63;;
54416;SDS011;40326;51.220;7.250;2022-08-05T12:50:24;7.43;;;2.65;;
54416;SDS011;40326;51.220;7.250;2022-08-05T12:52:56;5.45;;;2.83;;
54416;SDS011;40326;51.220;7.250;2022-08-05T12:55:28;5.85;;;3.20;;
54416;SDS011;40326;51.220;7.250;2022-08-05T12:57:55;5.57;;;2.72;;
54416;SDS011;40326;51.220;7.250;2022-08-05T13:00:23;6.57;;;3.00;;
54416;SDS011;40326;51.220;7.250;2022-08-05T13:02:53;5.50;;;2.65;;
54416;SDS011;40326;51.220;7.250;2022-08-05T13:05:20;4.80;;;2.63;;
54416;SDS011;40326;51.220;7.250;2022-08-05T13:07:47;6.65;;;2.70;;
54416;SDS011;40326;51.220;7.250;2022-08-05T13:10:13;4.60;;;2.38;;
54416;SDS011;40326;51.220;7.250;2022-08-05T13:12:40;5.22;;;3.05;;
54416;SDS011;40326;51.220;7.250;2022-08-05T13:15:10;6.22;;;2.80;;
54416;SDS011;40326;51.220;7.250;2022-08-05T13:17:37;5.32;;;2.80;;
54416;SDS011;40326;51.220;7.250;2022-08-05T13:22:29;4.32;;;2.20;;
54416;SDS011;40326;51.220;7.250;2022-08-05T13:24:59;5.18;;;2.78;;
54416;SDS011;40326;51.220;7.250;2022-08-05T13:27:34;5.88;;;2.40;;
54416;SDS011;40326;51.220;7.250;2022-08-05T13:30:05;6.82;;;2.58;;
54416;SDS011;40326;51.220;7.250;2022-08-05T13:32:33;4.43;;;2.50;;
54416;SDS011;40326;51.220;7.250;2022-08-05T13:34:58;4.22;;;2.50;;
54416;SDS011;40326;51.220;7.250;2022-08-05T13:37:23;5.47;;;2.35;;
54416;SDS011;40326;51.220;7.250;2022-08-05T13:39:49;4.53;;;2.38;;
54416;SDS011;40326;51.220;7.250;2022-08-05T13:42:17;4.90;;;2.55;;
54416;SDS011;40326;51.220;7.250;2022-08-05T13:44:44;8.00;;;2.75;;
54416;SDS011;40326;51.220;7.250;2022-08-05T13:47:10;4.78;;;2.30;;
54416;SDS011;40326;51.220;7.250;2022-08-05T13:49:35;4.20;;;2.55;;
54416;SDS011;40326;51.220;7.250;2022-08-05T13:52:10;4.20;;;2.25;;
54416;SDS011;40326;51.220;7.250;2022-08-05T13:54:36;5.07;;;2.50;;
54416;SDS011;40326;51.220;7.250;2022-08-05T13:57:01;4.97;;;2.50;;
54416;SDS011;40326;51.220;7.250;2022-08-05T13:59:26;5.13;;;2.67;;
54416;SDS011;40326;51.220;7.250;2022-08-05T14:01:52;4.65;;;2.50;;
54416;SDS011;40326;51.220;7.250;2022-08-05T14:04:18;4.13;;;2.75;;
54416;SDS011;40326;51.220;7.250;2022-08-05T14:09:27;5.97;;;2.92;;
54416;SDS011;40326;51.220;7.250;2022-08-05T14:11:53;4.95;;;3.45;;
54416;SDS011;40326;51.220;7.250;2022-08-05T14:14:18;7.40;;;3.30;;
54416;SDS011;40326;51.220;7.250;2022-08-05T14:16:44;4.53;;;3.40;;
54416;SDS011;40326;51.220;7.250;2022-08-05T14:19:09;5.03;;;3.30;;
54416;SDS011;40326;51.220;7.250;2022-08-05T14:21:34;6.25;;;3.40;;
54416;SDS011;40326;51.220;7.250;2022-08-05T14:23:59;5.68;;;3.10;;
54416;SDS011;40326;51.220;7.250;2022-08-05T14:26:25;4.55;;;2.97;;
54416;SDS011;40326;51.220;7.250;2022-08-05T14:28:50;6.47;;;3.60;;
54416;SDS011;40326;51.220;7.250;2022-08-05T14:31:15;6.55;;;3.15;;
54416;SDS011;40326;51.220;7.250;2022-08-05T14:33:41;4.80;;;3.30;;
54416;SDS011;40326;51.220;7.250;2022-08-05T14:36:06;4.82;;;3.10;;
54416;SDS011;40326;51.220;7.250;2022-08-05T14:38:31;5.88;;;3.40;;
54416;SDS011;40326;51.220;7.250;2022-08-05T14:40:57;4.70;;;2.50;;
54416;SDS011;40326;51.220;7.250;2022-08-05T14:43:23;5.10;;;2.85;;
54416;SDS011;40326;51.220;7.250;2022-08-05T14:45:48;5.20;;;2.80;;
54416;SDS011;40326;51.220;7.250;2022-08-05T14:48:14;4.32;;;2.97;;
54416;SDS011;40326;51.220;7.250;2022-08-05T14:50:39;4.75;;;3.00;;
54416;SDS011;40326;51.220;7.250;2022-08-05T14:53:04;5.13;;;2.83;;
54416;SDS011;40326;51.220;7.250;2022-08-05T14:55:30;9.73;;;2.60;;
54416;SDS011;40326;51.220;7.250;2022-08-05T14:57:55;5.00;;;2.80;;
54416;SDS011;40326;51.220;7.250;2022-08-05T15:00:21;5.70;;;2.85;;
54416;SDS011;40326;51.220;7.250;2022-08-05T15:02:47;4.07;;;2.30;;
54416;SDS011;40326;51.220;7.250;2022-08-05T15:05:12;5.63;;;2.40;;
54416;SDS011;40326;51.220;7.250;2022-08-05T15:07:38;4.32;;;2.53;;
54416;SDS011;40326;51.220;7.250;2022-08-05T15:10:04;2.90;;;2.05;;
54416;SDS011;40326;51.220;7.250;2022-08-05T15:12:30;4.75;;;2.35;;
54416;SDS011;40326;51.220;7.250;2022-08-05T15:14:56;4.65;;;2.38;;
54416;SDS011;40326;51.220;7.250;2022-08-05T15:17:22;5.43;;;1.90;;
54416;SDS011;40326;51.220;7.250;2022-08-05T15:19:48;4.07;;;1.73;;
54416;SDS011;40326;51.220;7.250;2022-08-05T15:22:14;2.72;;;1.50;;
54416;SDS011;40326;51.220;7.250;2022-08-05T15:24:39;4.53;;;1.60;;
54416;SDS011;40326;51.220;7.250;2022-08-05T15:27:05;2.22;;;1.40;;
54416;SDS011;40326;51.220;7.250;2022-08-05T15:29:30;2.33;;;1.30;;